Time;durP1;ratioP1;P1;durP2;ratioP2;P2;SDS_P1;SDS_P2;PMS_P1;PMS_P2;Temp;Humidity;BMP_temperature;BMP_pressure;BME280_temperature;BME280_humidity;BME280_pressure;Samples;Min_cycle;Max_cycle;Signal;HPM_P1;HPM_P2
2022/06/09 00:01:31;;;;;;;19.70;14.97;;;;;;;;;;4991563;28;20586;-65
2022/06/09 00:04:07;;;;;;;19.63;13.90;;;;;;;;;;5010562;28;20604;-65
2022/06/09 00:06:58;;;;;;;20.93;15.17;;;;;;;;;;4979670;28;20265;-65
2022/06/09 00:10:00;;;;;;;21.73;14.70;;;;;;;;;;4984532;28;20583;-65
2022/06/09 00:12:27;;;;;;;21.13;15.07;;;;;;;;;;4973407;28;20223;-65
2022/06/09 00:15:13;;;;;;;20.47;15.30;;;;;;;;;;4991703;28;20241;-65
2022/06/09 00:17:40;;;;;;;20.17;15.73;;;;;;;;;;5006568;28;20574;-66
2022/06/09 00:20:07;;;;;;;22.07;17.10;;;;;;;;;;5014015;28;23645;-65
2022/06/09 00:22:33;;;;;;;21.70;15.40;;;;;;;;;;4960963;28;20235;-68
2022/06/09 00:25:00;;;;;;;18.67;14.47;;;;;;;;;;4988273;28;20228;-65
2022/06/09 00:27:27;;;;;;;20.20;15.20;;;;;;;;;;5018161;28;20237;-65
2022/06/09 00:29:53;;;;;;;19.50;14.27;;;;;;;;;;5012337;28;20222;-68
2022/06/09 00:32:20;;;;;;;18.77;14.37;;;;;;;;;;4973288;28;20231;-65
2022/06/09 00:35:06;;;;;;;19.47;13.57;;;;;;;;;;4987651;28;20240;-65
2022/06/09 00:37:33;;;;;;;17.10;12.87;;;;;;;;;;5003506;28;20243;-65
2022/06/09 00:40:00;;;;;;;19.10;13.50;;;;;;;;;;4986603;28;20693;-65
2022/06/09 00:42:26;;;;;;;17.97;12.43;;;;;;;;;;5006607;28;20225;-65
2022/06/09 00:44:53;;;;;;;16.23;12.27;;;;;;;;;;5015767;28;20223;-65
2022/06/09 00:47:21;;;;;;;18.93;12.73;;;;;;;;;;4990836;28;20223;-65
2022/06/09 00:49:54;;;;;;;16.10;12.23;;;;;;;;;;4975428;28;20246;-67
2022/06/09 00:52:21;;;;;;;19.67;13.73;;;;;;;;;;4960662;28;20235;-65
2022/06/09 00:54:52;;;;;;;19.80;13.37;;;;;;;;;;4974170;28;20228;-65
2022/06/09 00:57:24;;;;;;;21.53;16.07;;;;;;;;;;4984258;28;20266;-65
2022/06/09 01:00:03;;;;;;;18.37;15.53;;;;;;;;;;4988451;28;20224;-65
2022/06/09 01:02:29;;;;;;;21.30;16.53;;;;;;;;;;4950783;28;20227;-65
2022/06/09 01:05:13;;;;;;;18.50;15.27;;;;;;;;;;4969337;28;20228;-65
2022/06/09 01:07:41;;;;;;;24.63;16.63;;;;;;;;;;4957616;28;20240;-65
2022/06/09 01:10:08;;;;;;;20.73;15.50;;;;;;;;;;4988110;28;20241;-65
2022/06/09 01:12:35;;;;;;;18.93;14.97;;;;;;;;;;4954559;28;20234;-65
2022/06/09 01:15:10;;;;;;;22.60;15.20;;;;;;;;;;4980869;28;20228;-65
2022/06/09 01:17:45;;;;;;;21.80;15.53;;;;;;;;;;4990637;28;20244;-65
2022/06/09 01:20:30;;;;;;;19.40;14.87;;;;;;;;;;4976292;28;20219;-65
2022/06/09 01:23:15;;;;;;;21.10;16.60;;;;;;;;;;4965990;28;20232;-65
2022/06/09 01:25:50;;;;;;;23.77;17.57;;;;;;;;;;4975518;28;20232;-65
2022/06/09 01:28:53;;;;;;;23.20;16.63;;;;;;;;;;4997801;28;20227;-65
2022/06/09 01:31:23;;;;;;;23.40;17.03;;;;;;;;;;4975846;28;20680;-65
2022/06/09 01:33:58;;;;;;;21.63;16.33;;;;;;;;;;4958768;28;20237;-65
2022/06/09 01:36:28;;;;;;;25.07;16.67;;;;;;;;;;4978085;28;21031;-65
2022/06/09 01:38:55;;;;;;;22.93;15.70;;;;;;;;;;4971498;28;20240;-65
2022/06/09 01:41:22;;;;;;;20.23;15.80;;;;;;;;;;4985555;28;20241;-65
2022/06/09 01:43:49;;;;;;;22.80;16.07;;;;;;;;;;4983215;28;20239;-70
2022/06/09 01:46:26;;;;;;;19.50;15.67;;;;;;;;;;4986995;28;20234;-65
2022/06/09 01:48:53;;;;;;;20.97;15.20;;;;;;;;;;4965329;28;20231;-65
2022/06/09 01:51:21;;;;;;;21.00;16.10;;;;;;;;;;4991646;28;20235;-64
2022/06/09 01:53:48;;;;;;;20.80;16.07;;;;;;;;;;4957007;28;20773;-65
2022/06/09 01:56:19;;;;;;;25.87;16.07;;;;;;;;;;4977961;28;20223;-65
2022/06/09 01:58:49;;;;;;;24.57;17.53;;;;;;;;;;4986735;28;20624;-65
2022/06/09 02:01:16;;;;;;;22.23;16.27;;;;;;;;;;4970443;28;20234;-65
2022/06/09 02:03:43;;;;;;;21.50;15.37;;;;;;;;;;4972730;28;20228;-65
2022/06/09 02:06:10;;;;;;;19.87;15.53;;;;;;;;;;4958883;28;20253;-64
2022/06/09 02:08:37;;;;;;;22.87;15.40;;;;;;;;;;4969580;28;20237;-65
2022/06/09 02:11:10;;;;;;;21.57;15.40;;;;;;;;;;4958014;28;20713;-65
2022/06/09 02:13:41;;;;;;;24.47;16.97;;;;;;;;;;4968357;28;20224;-65
2022/06/09 02:16:09;;;;;;;22.30;16.50;;;;;;;;;;4963321;28;20310;-64
2022/06/09 02:18:36;;;;;;;20.90;15.80;;;;;;;;;;4995733;28;20290;-65
2022/06/09 02:21:06;;;;;;;19.00;14.83;;;;;;;;;;4982276;28;20263;-65
2022/06/09 02:23:33;;;;;;;22.90;15.17;;;;;;;;;;4964991;28;20595;-66
2022/06/09 02:26:00;;;;;;;22.30;15.07;;;;;;;;;;4984097;28;20235;-64
2022/06/09 02:28:26;;;;;;;20.27;16.03;;;;;;;;;;4973552;28;20731;-65
2022/06/09 02:30:54;;;;;;;21.10;15.67;;;;;;;;;;4976137;28;20361;-65
2022/06/09 02:33:20;;;;;;;22.97;17.50;;;;;;;;;;4970126;28;20235;-65
2022/06/09 02:35:48;;;;;;;23.40;17.00;;;;;;;;;;4964617;28;20224;-63
2022/06/09 02:38:14;;;;;;;23.93;16.93;;;;;;;;;;4972561;28;20220;-64
2022/06/09 02:40:41;;;;;;;23.47;16.03;;;;;;;;;;4988154;28;20260;-65
2022/06/09 02:43:26;;;;;;;23.83;16.93;;;;;;;;;;4971636;28;20245;-65
2022/06/09 02:45:53;;;;;;;19.93;15.87;;;;;;;;;;4980633;28;20224;-65
2022/06/09 02:48:20;;;;;;;22.13;16.63;;;;;;;;;;4963813;28;20252;-65
2022/06/09 02:50:46;;;;;;;23.70;16.80;;;;;;;;;;4967743;28;20253;-65
2022/06/09 02:53:13;;;;;;;19.43;15.73;;;;;;;;;;4989442;28;20254;-65
2022/06/09 02:55:58;;;;;;;24.80;17.07;;;;;;;;;;4973768;28;20683;-65
2022/06/09 02:58:24;;;;;;;20.37;15.80;;;;;;;;;;4947066;28;20568;-65
2022/06/09 03:01:09;;;;;;;26.73;15.43;;;;;;;;;;4980055;28;20585;-65
2022/06/09 03:03:36;;;;;;;20.57;15.73;;;;;;;;;;4984248;28;20343;-66
2022/06/09 03:06:20;;;;;;;19.00;14.93;;;;;;;;;;4979505;28;20228;-65
2022/06/09 03:08:47;;;;;;;19.73;14.63;;;;;;;;;;4975869;28;20233;-65
2022/06/09 03:11:32;;;;;;;17.80;14.60;;;;;;;;;;4967206;28;20220;-65
2022/06/09 03:13:58;;;;;;;18.03;13.77;;;;;;;;;;4970210;28;20332;-65
2022/06/09 03:16:26;;;;;;;19.77;14.07;;;;;;;;;;4974581;28;20306;-65
2022/06/09 03:18:52;;;;;;;19.30;14.17;;;;;;;;;;4972779;28;20238;-65
2022/06/09 03:21:19;;;;;;;19.43;14.63;;;;;;;;;;4972654;28;20705;-64
2022/06/09 03:23:46;;;;;;;21.17;15.47;;;;;;;;;;4964994;28;20229;-65
2022/06/09 03:26:12;;;;;;;27.40;24.50;;;;;;;;;;4974000;28;20255;-65
2022/06/09 03:28:40;;;;;;;18.77;15.00;;;;;;;;;;4977978;28;20236;-65
2022/06/09 03:31:25;;;;;;;18.13;14.23;;;;;;;;;;4973576;28;20283;-65
2022/06/09 03:33:52;;;;;;;21.07;15.40;;;;;;;;;;4996043;28;20231;-65
2022/06/09 03:36:36;;;;;;;17.70;14.33;;;;;;;;;;4992821;28;21007;-67
2022/06/09 03:39:02;;;;;;;17.60;14.43;;;;;;;;;;4974483;28;20231;-66
2022/06/09 03:41:29;;;;;;;16.57;14.77;;;;;;;;;;4943031;28;20231;-69
2022/06/09 03:44:02;;;;;;;18.90;15.33;;;;;;;;;;4966459;28;20224;-65
2022/06/09 03:46:28;;;;;;;18.73;14.60;;;;;;;;;;4974633;28;20235;-65
2022/06/09 03:48:55;;;;;;;18.80;15.23;;;;;;;;;;4948860;28;21147;-65
2022/06/09 03:51:22;;;;;;;19.53;15.10;;;;;;;;;;4986224;28;20226;-65
2022/06/09 03:54:07;;;;;;;19.37;15.00;;;;;;;;;;4973134;28;20278;-65
2022/06/09 03:56:34;;;;;;;20.10;14.40;;;;;;;;;;4958431;28;20274;-66
2022/06/09 03:59:18;;;;;;;23.33;14.60;;;;;;;;;;4972875;28;20278;-65
2022/06/09 04:01:45;;;;;;;22.77;15.10;;;;;;;;;;4974106;28;20256;-65
2022/06/09 04:04:12;;;;;;;24.93;16.47;;;;;;;;;;4976929;28;20246;-65
2022/06/09 04:06:38;;;;;;;22.37;15.27;;;;;;;;;;4990705;28;20237;-65
2022/06/09 04:09:05;;;;;;;20.27;17.37;;;;;;;;;;4959598;28;20310;-66
2022/06/09 04:11:32;;;;;;;20.73;17.07;;;;;;;;;;4984027;28;20240;-65
2022/06/09 04:13:59;;;;;;;21.17;16.60;;;;;;;;;;4978134;28;20228;-65
2022/06/09 04:16:35;;;;;;;23.20;16.27;;;;;;;;;;4979427;28;20232;-65
2022/06/09 04:19:04;;;;;;;19.97;15.10;;;;;;;;;;4974358;28;20275;-66
2022/06/09 04:21:31;;;;;;;17.93;14.90;;;;;;;;;;4969013;28;20238;-67
2022/06/09 04:23:59;;;;;;;21.97;15.10;;;;;;;;;;4970501;28;20306;-66
2022/06/09 04:26:26;;;;;;;20.27;15.47;;;;;;;;;;4976037;28;20233;-66
2022/06/09 04:28:53;;;;;;;19.10;15.60;;;;;;;;;;4967533;28;20242;-66
2022/06/09 04:31:20;;;;;;;25.30;15.07;;;;;;;;;;4978260;28;31492;-66
2022/06/09 04:33:48;;;;;;;19.63;14.80;;;;;;;;;;4968683;28;20567;-65
2022/06/09 04:36:16;;;;;;;20.73;15.27;;;;;;;;;;4991211;28;20242;-66
2022/06/09 04:38:43;;;;;;;21.77;14.50;;;;;;;;;;4978515;28;23088;-65
2022/06/09 04:41:10;;;;;;;22.80;14.93;;;;;;;;;;4987798;28;28017;-66
2022/06/09 04:43:37;;;;;;;19.17;15.37;;;;;;;;;;4985357;28;20246;-66
2022/06/09 04:46:04;;;;;;;17.33;14.60;;;;;;;;;;4981065;28;20232;-65
2022/06/09 04:48:31;;;;;;;19.17;15.30;;;;;;;;;;4969676;28;20243;-65
2022/06/09 04:50:58;;;;;;;25.27;16.67;;;;;;;;;;4988149;28;20227;-65
2022/06/09 04:53:25;;;;;;;21.30;16.37;;;;;;;;;;4982676;28;26146;-65
2022/06/09 04:56:09;;;;;;;20.20;15.97;;;;;;;;;;4973408;28;20220;-66
2022/06/09 04:58:39;;;;;;;24.70;17.53;;;;;;;;;;4966348;28;20235;-65
2022/06/09 05:01:31;;;;;;;20.20;17.33;;;;;;;;;;4982844;28;22684;-66
2022/06/09 05:03:58;;;;;;;20.80;15.93;;;;;;;;;;4989110;28;20682;-66
2022/06/09 05:06:43;;;;;;;19.07;17.07;;;;;;;;;;4990462;28;20679;-66
2022/06/09 05:09:09;;;;;;;17.27;15.50;;;;;;;;;;4974663;28;20698;-66
2022/06/09 05:11:37;;;;;;;18.70;15.70;;;;;;;;;;4959095;28;20768;-66
2022/06/09 05:14:04;;;;;;;19.00;15.57;;;;;;;;;;4978543;28;20239;-67
2022/06/09 05:16:31;;;;;;;17.07;14.47;;;;;;;;;;4978800;28;20303;-66
2022/06/09 05:19:15;;;;;;;18.87;13.97;;;;;;;;;;4979216;28;20212;-66
2022/06/09 05:21:41;;;;;;;19.70;14.57;;;;;;;;;;4963060;28;20997;-66
2022/06/09 05:24:11;;;;;;;18.83;15.87;;;;;;;;;;4994644;28;20689;-66
2022/06/09 05:26:38;;;;;;;22.97;15.77;;;;;;;;;;4973456;28;20228;-66
2022/06/09 05:29:06;;;;;;;16.93;14.00;;;;;;;;;;4984370;28;21010;-66
2022/06/09 05:31:33;;;;;;;16.50;13.90;;;;;;;;;;4965834;28;20319;-68
2022/06/09 05:34:00;;;;;;;13.83;11.03;;;;;;;;;;4981466;28;20227;-66
2022/06/09 05:36:26;;;;;;;14.73;12.20;;;;;;;;;;4973154;28;24915;-66
2022/06/09 05:44:51;;;;;;;12.37;10.40;;;;;;;;;;4981802;28;20584;-66
2022/06/09 05:47:21;;;;;;;14.70;11.37;;;;;;;;;;4977978;28;20227;-66
2022/06/09 05:49:48;;;;;;;15.13;11.50;;;;;;;;;;4974644;28;20235;-66
2022/06/09 05:52:15;;;;;;;14.90;11.43;;;;;;;;;;4977114;28;20224;-66
2022/06/09 05:54:41;;;;;;;16.27;11.63;;;;;;;;;;4968306;28;20236;-66
2022/06/09 05:57:09;;;;;;;13.17;11.10;;;;;;;;;;4969514;28;20318;-67
2022/06/09 05:59:37;;;;;;;13.20;10.47;;;;;;;;;;4972692;28;20393;-66
2022/06/09 06:02:04;;;;;;;15.50;10.30;;;;;;;;;;4969915;28;20225;-66
2022/06/09 06:04:49;;;;;;;14.93;10.77;;;;;;;;;;4975209;28;20231;-66
2022/06/09 06:07:15;;;;;;;15.77;9.97;;;;;;;;;;4950384;28;20243;-67
2022/06/09 06:09:42;;;;;;;14.77;10.27;;;;;;;;;;4968005;28;20372;-66
2022/06/09 06:12:09;;;;;;;13.80;9.83;;;;;;;;;;4965623;28;20250;-66
2022/06/09 06:14:36;;;;;;;11.33;9.57;;;;;;;;;;4966668;28;20236;-66
2022/06/09 06:17:20;;;;;;;9.87;7.70;;;;;;;;;;4952717;28;20220;-68
2022/06/09 06:19:47;;;;;;;9.07;8.17;;;;;;;;;;4959285;28;20275;-66
2022/06/09 06:22:14;;;;;;;8.60;7.77;;;;;;;;;;4976057;28;20232;-66
2022/06/09 06:24:40;;;;;;;13.00;8.90;;;;;;;;;;4979080;28;20229;-66
2022/06/09 06:27:07;;;;;;;8.57;6.70;;;;;;;;;;4967248;28;20228;-66
2022/06/09 06:29:54;;;;;;;7.87;6.33;;;;;;;;;;4966150;28;20936;-67
2022/06/09 06:32:20;;;;;;;9.00;7.30;;;;;;;;;;4967076;28;20262;-66
2022/06/09 06:34:47;;;;;;;8.13;6.60;;;;;;;;;;4965060;28;20303;-67
2022/06/09 06:37:14;;;;;;;6.00;5.40;;;;;;;;;;4965406;28;20723;-66
2022/06/09 06:39:41;;;;;;;7.13;5.80;;;;;;;;;;4966102;28;20646;-65
2022/06/09 06:42:08;;;;;;;6.67;5.30;;;;;;;;;;4967458;28;20786;-66
2022/06/09 06:44:40;;;;;;;7.80;4.63;;;;;;;;;;4966697;28;20223;-66
2022/06/09 06:47:11;;;;;;;9.77;5.17;;;;;;;;;;4982246;28;20239;-66
2022/06/09 06:49:37;;;;;;;8.10;6.33;;;;;;;;;;4968716;28;20622;-66
2022/06/09 06:52:04;;;;;;;10.67;7.87;;;;;;;;;;4975504;28;20228;-66
2022/06/09 06:54:31;;;;;;;10.27;8.07;;;;;;;;;;4967793;28;20235;-66
2022/06/09 06:56:57;;;;;;;9.13;8.20;;;;;;;;;;4949363;28;20228;-66
2022/06/09 06:59:24;;;;;;;8.80;7.97;;;;;;;;;;4988356;28;20733;-66
2022/06/09 07:01:51;;;;;;;8.93;7.47;;;;;;;;;;4964934;28;20233;-66
2022/06/09 07:04:18;;;;;;;10.23;8.10;;;;;;;;;;4965219;28;21005;-66
2022/06/09 07:06:45;;;;;;;9.57;7.83;;;;;;;;;;4964593;28;20239;-66
2022/06/09 07:09:13;;;;;;;10.87;7.87;;;;;;;;;;4964694;28;20239;-66
2022/06/09 07:11:58;;;;;;;9.40;8.40;;;;;;;;;;4955275;28;20251;-67
2022/06/09 07:14:24;;;;;;;9.00;8.10;;;;;;;;;;4962072;28;20228;-66
2022/06/09 07:17:08;;;;;;;9.27;8.37;;;;;;;;;;4966539;28;20259;-66
2022/06/09 07:19:35;;;;;;;8.83;7.93;;;;;;;;;;4959334;28;20229;-66
2022/06/09 07:22:02;;;;;;;8.70;7.80;;;;;;;;;;4974410;28;20220;-66
2022/06/09 07:24:29;;;;;;;9.57;7.70;;;;;;;;;;4953585;28;20311;-66
2022/06/09 07:26:56;;;;;;;9.97;8.77;;;;;;;;;;4966973;28;20239;-65
2022/06/09 07:29:25;;;;;;;11.50;7.90;;;;;;;;;;4963950;28;20240;-65
2022/06/09 07:31:52;;;;;;;9.27;8.23;;;;;;;;;;4965376;28;20232;-64
2022/06/09 07:34:19;;;;;;;9.33;8.40;;;;;;;;;;4947875;28;20949;-65
2022/06/09 07:36:46;;;;;;;9.67;7.20;;;;;;;;;;4960842;28;20334;-64
2022/06/09 07:39:13;;;;;;;9.00;8.20;;;;;;;;;;4964241;28;20264;-64
2022/06/09 07:41:40;;;;;;;8.77;7.50;;;;;;;;;;4962495;28;20228;-65
2022/06/09 07:44:23;;;;;;;8.50;6.20;;;;;;;;;;4970505;28;20315;-65
2022/06/09 07:46:50;;;;;;;6.23;5.63;;;;;;;;;;4965947;28;20228;-65
2022/06/09 07:49:17;;;;;;;5.13;4.57;;;;;;;;;;4961630;28;20591;-65
2022/06/09 07:51:43;;;;;;;5.60;5.00;;;;;;;;;;4968278;28;20610;-65
2022/06/09 07:54:13;;;;;;;5.43;4.80;;;;;;;;;;4961847;28;22850;-65
2022/06/09 07:56:58;;;;;;;5.30;4.27;;;;;;;;;;4966064;28;20216;-65
2022/06/09 07:59:24;;;;;;;6.67;4.47;;;;;;;;;;4968639;28;20220;-65
2022/06/09 08:01:52;;;;;;;4.67;4.17;;;;;;;;;;4966679;28;20686;-65
2022/06/09 08:04:25;;;;;;;5.53;4.60;;;;;;;;;;4975434;28;20236;-65
2022/06/09 08:07:09;;;;;;;7.50;6.00;;;;;;;;;;4962448;28;20618;-64
2022/06/09 08:09:37;;;;;;;7.87;6.87;;;;;;;;;;4963146;28;20676;-65
2022/06/09 08:12:05;;;;;;;9.93;6.50;;;;;;;;;;4969770;28;20685;-64
2022/06/09 08:14:32;;;;;;;7.93;5.80;;;;;;;;;;4961806;28;20263;-64
2022/06/09 08:16:58;;;;;;;9.50;6.83;;;;;;;;;;4967459;28;20217;-63
2022/06/09 08:19:25;;;;;;;7.47;5.67;;;;;;;;;;4964445;28;20229;-64
2022/06/09 08:21:52;;;;;;;7.10;5.37;;;;;;;;;;4963759;28;20247;-64
2022/06/09 08:24:19;;;;;;;7.93;6.40;;;;;;;;;;4947048;28;20710;-65
2022/06/09 08:26:46;;;;;;;8.27;7.23;;;;;;;;;;4965589;28;20227;-64
2022/06/09 08:29:13;;;;;;;9.17;7.87;;;;;;;;;;4965054;28;20702;-65
2022/06/09 08:31:41;;;;;;;9.63;7.70;;;;;;;;;;4971013;28;20595;-64
2022/06/09 08:34:26;;;;;;;10.37;7.97;;;;;;;;;;4969995;28;20276;-65
2022/06/09 08:36:53;;;;;;;8.80;7.90;;;;;;;;;;4961851;28;20699;-65
2022/06/09 08:39:20;;;;;;;8.27;7.17;;;;;;;;;;4959903;28;20306;-65
2022/06/09 08:41:50;;;;;;;10.20;8.10;;;;;;;;;;4947467;28;20715;-65
2022/06/09 08:44:16;;;;;;;9.90;8.70;;;;;;;;;;4947725;28;20718;-65
2022/06/09 08:47:04;;;;;;;8.80;7.90;;;;;;;;;;4959953;28;20228;-65
2022/06/09 08:49:37;;;;;;;12.70;8.97;;;;;;;;;;4997786;28;20238;-64
2022/06/09 08:52:05;;;;;;;11.27;9.57;;;;;;;;;;4974917;28;20308;-65
2022/06/09 08:54:35;;;;;;;10.63;7.70;;;;;;;;;;4947140;28;20251;-66
2022/06/09 08:57:04;;;;;;;10.37;8.83;;;;;;;;;;4961997;28;22048;-65
2022/06/09 08:59:31;;;;;;;11.57;9.50;;;;;;;;;;4960219;28;20630;-65
2022/06/09 09:01:58;;;;;;;11.33;10.13;;;;;;;;;;4960031;28;20232;-65
2022/06/09 09:04:26;;;;;;;10.57;9.53;;;;;;;;;;5002359;28;20238;-65
2022/06/09 09:06:56;;;;;;;11.67;9.43;;;;;;;;;;5003317;28;20881;-64
2022/06/09 09:09:24;;;;;;;12.80;9.53;;;;;;;;;;5019421;28;20222;-65
2022/06/09 09:12:01;;;;;;;10.70;8.80;;;;;;;;;;5018682;28;20297;-65
2022/06/09 09:14:48;;;;;;;11.67;9.20;;;;;;;;;;5019134;28;20237;-64
2022/06/09 09:17:14;;;;;;;11.90;8.97;;;;;;;;;;4969553;28;20949;-65
2022/06/09 09:20:26;;;;;;;9.53;8.53;;;;;;;;;;5016517;28;20229;-66
2022/06/09 09:23:02;;;;;;;11.13;9.93;;;;;;;;;;4974587;28;20275;-65
2022/06/09 09:25:48;;;;;;;9.10;8.20;;;;;;;;;;4962864;28;20568;-64
2022/06/09 09:28:27;;;;;;;9.90;8.90;;;;;;;;;;4962046;28;20236;-65
2022/06/09 09:31:20;;;;;;;9.17;8.10;;;;;;;;;;4955534;28;20225;-65
2022/06/09 09:33:48;;;;;;;6.00;5.40;;;;;;;;;;5011795;28;20228;-65
2022/06/09 09:36:25;;;;;;;8.33;7.53;;;;;;;;;;4969932;28;20240;-64
2022/06/09 09:38:58;;;;;;;6.70;5.93;;;;;;;;;;4973727;28;20228;-65
2022/06/09 09:41:34;;;;;;;9.43;8.03;;;;;;;;;;4962799;28;20223;-65
2022/06/09 09:44:17;;;;;;;8.00;7.03;;;;;;;;;;5020498;28;20233;-65
2022/06/09 09:46:55;;;;;;;8.10;6.80;;;;;;;;;;5022581;28;20226;-65
2022/06/09 09:49:24;;;;;;;6.93;5.40;;;;;;;;;;4984348;28;20714;-65
2022/06/09 09:51:51;;;;;;;7.13;6.47;;;;;;;;;;4966693;28;20231;-66
2022/06/09 09:54:19;;;;;;;8.17;7.37;;;;;;;;;;4965002;28;20269;-65
2022/06/09 09:56:46;;;;;;;7.43;6.80;;;;;;;;;;4963180;28;20607;-65
2022/06/09 09:59:24;;;;;;;7.00;6.40;;;;;;;;;;4952567;28;20227;-65
2022/06/09 10:08:40;;;;;;;7.27;6.57;;;;;;;;;;4966153;28;20321;-65
2022/06/09 10:14:34;;;;;;;6.60;6.00;;;;;;;;;;4962101;28;21044;-65
2022/06/09 10:17:19;;;;;;;7.07;6.37;;;;;;;;;;4934205;28;20944;-65
2022/06/09 10:20:05;;;;;;;7.23;6.50;;;;;;;;;;4973130;28;20248;-65
2022/06/09 10:22:33;;;;;;;6.57;5.97;;;;;;;;;;4964059;28;20232;-65
2022/06/09 10:25:15;;;;;;;10.33;6.00;;;;;;;;;;4962832;28;20237;-65
2022/06/09 10:27:49;;;;;;;6.77;6.17;;;;;;;;;;4964969;28;20242;-64
2022/06/09 10:30:29;;;;;;;7.80;6.40;;;;;;;;;;4949418;28;20244;-65
2022/06/09 10:33:02;;;;;;;6.60;6.00;;;;;;;;;;4959982;28;20327;-65
2022/06/09 10:35:43;;;;;;;8.83;6.00;;;;;;;;;;4957054;28;20238;-64
2022/06/09 10:38:25;;;;;;;6.83;6.20;;;;;;;;;;4968794;28;20692;-64
2022/06/09 10:40:56;;;;;;;7.03;5.70;;;;;;;;;;4954624;28;20232;-65
2022/06/09 10:43:22;;;;;;;6.90;6.20;;;;;;;;;;4961068;28;20293;-65
2022/06/09 10:45:52;;;;;;;6.77;6.07;;;;;;;;;;4964526;28;20312;-65
2022/06/09 10:57:03;;;;;;;9.30;6.73;;;;;;;;;;4971364;28;20236;-65
2022/06/09 10:59:35;;;;;;;8.83;6.50;;;;;;;;;;4963545;28;20224;-65
2022/06/09 11:02:01;;;;;;;8.13;6.57;;;;;;;;;;4961657;28;20842;-65
2022/06/09 11:04:31;;;;;;;6.87;6.27;;;;;;;;;;4961827;28;20241;-64
2022/06/09 11:07:17;;;;;;;12.33;11.00;;;;;;;;;;4955490;28;20233;-65
2022/06/09 11:09:50;;;;;;;14.87;13.37;;;;;;;;;;4963372;28;20245;-65
2022/06/09 11:12:17;;;;;;;15.97;14.40;;;;;;;;;;4960573;28;20228;-65
2022/06/09 11:14:47;;;;;;;16.03;14.33;;;;;;;;;;4962298;28;20229;-65
2022/06/09 11:17:14;;;;;;;15.60;14.10;;;;;;;;;;4946049;28;46376;-66
2022/06/09 11:19:46;;;;;;;16.67;14.93;;;;;;;;;;4963064;28;20735;-65
2022/06/09 11:22:24;;;;;;;17.67;15.80;;;;;;;;;;4961815;28;20233;-66
2022/06/09 11:24:53;;;;;;;15.73;14.13;;;;;;;;;;4952232;28;20235;-65
2022/06/09 11:27:32;;;;;;;16.10;14.50;;;;;;;;;;4962111;28;20688;-65
2022/06/09 11:30:14;;;;;;;14.93;13.37;;;;;;;;;;4949369;28;20244;-65
2022/06/09 11:32:40;;;;;;;13.93;12.53;;;;;;;;;;4969166;28;22441;-65
2022/06/09 11:35:18;;;;;;;14.30;12.83;;;;;;;;;;4948466;28;20691;-65
2022/06/09 11:37:46;;;;;;;13.97;12.57;;;;;;;;;;4945620;28;20232;-65
2022/06/09 11:40:12;;;;;;;15.43;13.87;;;;;;;;;;4962361;28;20221;-65
2022/06/09 11:42:45;;;;;;;14.30;12.83;;;;;;;;;;4959608;28;20260;-64
2022/06/09 11:45:21;;;;;;;13.07;11.73;;;;;;;;;;4960767;28;20244;-65
2022/06/09 11:47:48;;;;;;;12.70;11.40;;;;;;;;;;4944582;28;26150;-66
2022/06/09 11:50:15;;;;;;;13.53;11.63;;;;;;;;;;4977102;28;20948;-65
2022/06/09 11:52:44;;;;;;;12.90;11.70;;;;;;;;;;4934444;28;20224;-65
2022/06/09 11:55:23;;;;;;;12.77;11.47;;;;;;;;;;4967251;28;20228;-66
2022/06/09 11:57:50;;;;;;;12.90;11.70;;;;;;;;;;4960175;28;20748;-65
2022/06/09 12:00:23;;;;;;;14.50;13.00;;;;;;;;;;4947439;28;20240;-65
2022/06/09 12:02:55;;;;;;;16.50;14.37;;;;;;;;;;4961912;28;21652;-66
2022/06/09 12:05:23;;;;;;;15.20;13.60;;;;;;;;;;4969224;28;20244;-66
2022/06/09 12:08:01;;;;;;;14.73;13.23;;;;;;;;;;4964381;28;20236;-65
2022/06/09 12:10:28;;;;;;;15.90;14.37;;;;;;;;;;4950111;28;20717;-65
2022/06/09 12:13:01;;;;;;;17.07;15.27;;;;;;;;;;4960538;28;20969;-66
2022/06/09 12:15:33;;;;;;;17.03;15.20;;;;;;;;;;4960927;28;20687;-66
2022/06/09 12:18:08;;;;;;;15.53;13.93;;;;;;;;;;4960061;28;20228;-66
2022/06/09 12:20:55;;;;;;;15.90;14.30;;;;;;;;;;4960440;28;20236;-66
2022/06/09 12:23:21;;;;;;;14.90;12.63;;;;;;;;;;4961425;28;20279;-66
2022/06/09 12:26:07;;;;;;;14.87;13.27;;;;;;;;;;4961006;28;20700;-66
2022/06/09 12:28:49;;;;;;;14.43;12.93;;;;;;;;;;4961785;28;20224;-66
2022/06/09 12:31:23;;;;;;;13.27;11.93;;;;;;;;;;4974326;28;20231;-65
2022/06/09 12:34:02;;;;;;;13.77;11.97;;;;;;;;;;4948206;28;20232;-66
2022/06/09 12:36:33;;;;;;;14.37;12.47;;;;;;;;;;4961731;28;20315;-66
2022/06/09 12:39:00;;;;;;;15.93;12.90;;;;;;;;;;4964070;28;20236;-66
2022/06/09 12:41:37;;;;;;;13.80;12.50;;;;;;;;;;4950701;28;25968;-66
2022/06/09 12:44:04;;;;;;;14.27;12.10;;;;;;;;;;4959559;28;20235;-66
2022/06/09 12:46:31;;;;;;;13.93;12.40;;;;;;;;;;4961873;28;20232;-66
2022/06/09 12:48:58;;;;;;;13.43;12.07;;;;;;;;;;4945253;28;20240;-65
2022/06/09 12:51:31;;;;;;;13.10;11.70;;;;;;;;;;4962973;28;20722;-66
2022/06/09 12:54:05;;;;;;;14.07;12.63;;;;;;;;;;4960095;28;20217;-66
2022/06/09 12:56:38;;;;;;;12.83;11.47;;;;;;;;;;4960383;28;20643;-65
2022/06/09 12:59:14;;;;;;;14.10;11.77;;;;;;;;;;4959595;28;20739;-65
2022/06/09 13:02:03;;;;;;;13.43;11.80;;;;;;;;;;4950375;28;20647;-65
2022/06/09 13:04:32;;;;;;;11.87;10.33;;;;;;;;;;4960113;28;20228;-65
2022/06/09 13:07:00;;;;;;;12.13;10.90;;;;;;;;;;4957999;28;20236;-65
2022/06/09 13:09:31;;;;;;;11.10;10.00;;;;;;;;;;4960892;28;20588;-65
2022/06/09 13:15:08;;;;;;;11.20;10.13;;;;;;;;;;4969611;28;20249;-65
2022/06/09 13:17:35;;;;;;;11.30;10.10;;;;;;;;;;4968436;28;20335;-65
2022/06/09 13:20:21;;;;;;;11.10;10.00;;;;;;;;;;4954642;28;20240;-66
2022/06/09 13:22:48;;;;;;;13.73;9.47;;;;;;;;;;4969542;28;20827;-65
2022/06/09 13:25:23;;;;;;;10.67;9.30;;;;;;;;;;4949388;28;20235;-66
2022/06/09 13:27:49;;;;;;;11.33;10.23;;;;;;;;;;4994160;28;20214;-65
2022/06/09 13:30:50;;;;;;;11.00;9.90;;;;;;;;;;5004873;28;20582;-68
2022/06/09 13:33:23;;;;;;;11.83;10.70;;;;;;;;;;4955246;28;20231;-65
2022/06/09 13:36:28;;;;;;;11.63;10.10;;;;;;;;;;4964927;28;20227;-65
2022/06/09 13:38:54;;;;;;;11.97;10.30;;;;;;;;;;4959852;28;20236;-65
2022/06/09 13:41:25;;;;;;;11.00;9.80;;;;;;;;;;4944176;28;20233;-66
2022/06/09 13:43:52;;;;;;;10.73;9.73;;;;;;;;;;4963527;28;20592;-65
2022/06/09 13:46:27;;;;;;;10.87;9.77;;;;;;;;;;4972597;28;20248;-67
2022/06/09 13:49:22;;;;;;;15.33;11.97;;;;;;;;;;4963625;28;20220;-65
2022/06/09 13:51:56;;;;;;;18.23;13.17;;;;;;;;;;4972900;28;20239;-66
2022/06/09 13:54:42;;;;;;;12.63;11.37;;;;;;;;;;4966164;28;20692;-66
2022/06/09 13:57:12;;;;;;;11.87;10.77;;;;;;;;;;4951191;28;20643;-66
2022/06/09 13:59:38;;;;;;;13.17;11.13;;;;;;;;;;4966259;28;20394;-66
2022/06/09 14:02:05;;;;;;;13.10;11.73;;;;;;;;;;4964920;28;20248;-66
2022/06/09 14:04:33;;;;;;;15.93;12.97;;;;;;;;;;4954922;28;69352;-66
2022/06/09 14:07:00;;;;;;;12.43;11.10;;;;;;;;;;4964509;28;20251;-65
2022/06/09 14:09:26;;;;;;;13.57;10.97;;;;;;;;;;4963071;28;20251;-66
2022/06/09 14:11:53;;;;;;;11.13;10.13;;;;;;;;;;4964239;28;20236;-66
2022/06/09 14:14:39;;;;;;;10.27;9.37;;;;;;;;;;4948164;28;20320;-66
2022/06/09 14:17:05;;;;;;;9.73;8.83;;;;;;;;;;4967826;28;20236;-65
2022/06/09 14:19:32;;;;;;;9.70;8.80;;;;;;;;;;4963084;28;20311;-66
2022/06/09 14:21:59;;;;;;;12.33;9.67;;;;;;;;;;4952309;28;20240;-66
2022/06/09 14:24:29;;;;;;;9.60;8.60;;;;;;;;;;4966867;28;20236;-67
2022/06/09 14:26:56;;;;;;;9.43;8.57;;;;;;;;;;4975246;28;20258;-65
2022/06/09 14:29:27;;;;;;;8.90;8.10;;;;;;;;;;4964219;28;20724;-65
2022/06/09 14:31:54;;;;;;;8.93;8.13;;;;;;;;;;4972581;28;20256;-65
2022/06/09 14:34:24;;;;;;;9.40;8.60;;;;;;;;;;4965472;28;20225;-66
2022/06/09 14:36:51;;;;;;;9.70;8.57;;;;;;;;;;4971038;28;20224;-65
2022/06/09 14:39:37;;;;;;;10.10;9.10;;;;;;;;;;4976080;28;20275;-66
2022/06/09 14:42:08;;;;;;;10.13;9.20;;;;;;;;;;4947020;28;23765;-66
2022/06/09 14:44:35;;;;;;;9.83;8.93;;;;;;;;;;4966388;28;24756;-67
2022/06/09 14:47:02;;;;;;;9.47;8.17;;;;;;;;;;4972420;28;20282;-67
2022/06/09 14:49:29;;;;;;;10.13;9.13;;;;;;;;;;4969930;28;20228;-67
2022/06/09 14:51:56;;;;;;;10.40;9.40;;;;;;;;;;4967399;28;36082;-66
2022/06/09 14:54:23;;;;;;;10.23;9.27;;;;;;;;;;4971721;28;20220;-67
2022/06/09 14:56:50;;;;;;;10.20;9.20;;;;;;;;;;4959877;28;23609;-66
2022/06/09 14:59:17;;;;;;;8.73;7.93;;;;;;;;;;4983777;28;20707;-64
2022/06/09 15:01:45;;;;;;;9.73;8.87;;;;;;;;;;4955921;28;20240;-65
2022/06/09 15:04:12;;;;;;;9.10;8.23;;;;;;;;;;4968157;28;20266;-66
2022/06/09 15:06:57;;;;;;;9.87;8.97;;;;;;;;;;4972013;28;20619;-64
2022/06/09 15:09:26;;;;;;;9.00;8.17;;;;;;;;;;4958047;28;20236;-66
2022/06/09 15:11:53;;;;;;;10.30;9.30;;;;;;;;;;4970075;28;23169;-66
2022/06/09 15:14:20;;;;;;;11.00;10.00;;;;;;;;;;4965710;28;20324;-65
2022/06/09 15:16:59;;;;;;;10.43;9.33;;;;;;;;;;4974993;28;20236;-65
2022/06/09 15:19:44;;;;;;;11.43;10.17;;;;;;;;;;4972375;28;20232;-66